sensor_id;sensor_type;location;lat;lon;timestamp;P1;durP1;ratioP1;P2;durP2;ratioP2
38693;SDS011;24447;43.460;25.744;2022-12-18T00:01:36;26.48;;;12.38;;
38693;SDS011;24447;43.460;25.744;2022-12-18T00:04:03;25.10;;;8.82;;
38693;SDS011;24447;43.460;25.744;2022-12-18T00:06:31;23.25;;;8.52;;
38693;SDS011;24447;43.460;25.744;2022-12-18T00:08:58;31.75;;;12.80;;
38693;SDS011;24447;43.460;25.744;2022-12-18T00:11:26;22.92;;;10.55;;
38693;SDS011;24447;43.460;25.744;2022-12-18T00:13:54;33.08;;;12.52;;
38693;SDS011;24447;43.460;25.744;2022-12-18T00:16:22;28.75;;;12.02;;
38693;SDS011;24447;43.460;25.744;2022-12-18T00:18:50;31.88;;;13.55;;
38693;SDS011;24447;43.460;25.744;2022-12-18T00:21:18;42.55;;;19.83;;
38693;SDS011;24447;43.460;25.744;2022-12-18T00:23:45;31.27;;;14.25;;
38693;SDS011;24447;43.460;25.744;2022-12-18T00:26:12;30.60;;;12.68;;
38693;SDS011;24447;43.460;25.744;2022-12-18T00:28:41;24.98;;;10.82;;
38693;SDS011;24447;43.460;25.744;2022-12-18T00:31:12;28.70;;;10.73;;
38693;SDS011;24447;43.460;25.744;2022-12-18T00:33:43;26.17;;;10.07;;
38693;SDS011;24447;43.460;25.744;2022-12-18T00:36:19;29.35;;;12.45;;
38693;SDS011;24447;43.460;25.744;2022-12-18T00:38:46;30.75;;;12.00;;
38693;SDS011;24447;43.460;25.744;2022-12-18T00:41:14;29.98;;;13.88;;
38693;SDS011;24447;43.460;25.744;2022-12-18T00:44:04;29.77;;;12.35;;
38693;SDS011;24447;43.460;25.744;2022-12-18T00:46:31;34.25;;;11.82;;
38693;SDS011;24447;43.460;25.744;2022-12-18T00:48:57;36.83;;;16.75;;
38693;SDS011;24447;43.460;25.744;2022-12-18T00:51:24;31.55;;;16.52;;
38693;SDS011;24447;43.460;25.744;2022-12-18T00:53:50;31.42;;;13.18;;
38693;SDS011;24447;43.460;25.744;2022-12-18T00:56:17;29.15;;;12.10;;
38693;SDS011;24447;43.460;25.744;2022-12-18T00:58:43;32.55;;;12.43;;
38693;SDS011;24447;43.460;25.744;2022-12-18T01:01:09;37.42;;;11.98;;
38693;SDS011;24447;43.460;25.744;2022-12-18T01:03:34;32.90;;;11.95;;
38693;SDS011;24447;43.460;25.744;2022-12-18T01:06:10;23.73;;;10.07;;
38693;SDS011;24447;43.460;25.744;2022-12-18T01:08:37;27.08;;;10.57;;
38693;SDS011;24447;43.460;25.744;2022-12-18T01:11:07;26.77;;;10.18;;
38693;SDS011;24447;43.460;25.744;2022-12-18T01:13:37;34.75;;;13.27;;
38693;SDS011;24447;43.460;25.744;2022-12-18T01:16:04;33.25;;;13.98;;
38693;SDS011;24447;43.460;25.744;2022-12-18T01:18:30;35.25;;;17.15;;
38693;SDS011;24447;43.460;25.744;2022-12-18T01:20:56;44.70;;;15.30;;
38693;SDS011;24447;43.460;25.744;2022-12-18T01:23:22;31.63;;;13.13;;
38693;SDS011;24447;43.460;25.744;2022-12-18T01:25:48;51.25;;;19.25;;
38693;SDS011;24447;43.460;25.744;2022-12-18T01:28:13;36.85;;;14.73;;
38693;SDS011;24447;43.460;25.744;2022-12-18T01:30:39;52.75;;;21.73;;
38693;SDS011;24447;43.460;25.744;2022-12-18T01:33:05;75.82;;;28.15;;
38693;SDS011;24447;43.460;25.744;2022-12-18T01:35:31;74.60;;;30.45;;
38693;SDS011;24447;43.460;25.744;2022-12-18T01:37:57;61.88;;;25.20;;
38693;SDS011;24447;43.460;25.744;2022-12-18T01:40:23;42.33;;;19.45;;
38693;SDS011;24447;43.460;25.744;2022-12-18T01:42:50;34.75;;;15.05;;
38693;SDS011;24447;43.460;25.744;2022-12-18T01:48:06;35.17;;;17.60;;
38693;SDS011;24447;43.460;25.744;2022-12-18T01:55:48;36.25;;;14.65;;
38693;SDS011;24447;43.460;25.744;2022-12-18T01:58:14;30.48;;;10.75;;
38693;SDS011;24447;43.460;25.744;2022-12-18T02:00:40;35.20;;;14.32;;
38693;SDS011;24447;43.460;25.744;2022-12-18T02:03:06;30.95;;;12.18;;
38693;SDS011;24447;43.460;25.744;2022-12-18T02:10:36;28.70;;;12.23;;
38693;SDS011;24447;43.460;25.744;2022-12-18T02:18:19;35.42;;;16.25;;
38693;SDS011;24447;43.460;25.744;2022-12-18T02:20:49;37.80;;;15.45;;
38693;SDS011;24447;43.460;25.744;2022-12-18T02:26:27;32.53;;;13.50;;
38693;SDS011;24447;43.460;25.744;2022-12-18T02:29:18;32.42;;;13.25;;
38693;SDS011;24447;43.460;25.744;2022-12-18T02:31:52;34.25;;;16.42;;
38693;SDS011;24447;43.460;25.744;2022-12-18T02:34:21;29.20;;;12.82;;
38693;SDS011;24447;43.460;25.744;2022-12-18T02:36:49;25.65;;;11.40;;
38693;SDS011;24447;43.460;25.744;2022-12-18T02:39:16;30.90;;;13.50;;
38693;SDS011;24447;43.460;25.744;2022-12-18T02:41:43;30.35;;;12.10;;
38693;SDS011;24447;43.460;25.744;2022-12-18T02:44:10;30.73;;;13.00;;
38693;SDS011;24447;43.460;25.744;2022-12-18T02:46:44;29.20;;;12.70;;
38693;SDS011;24447;43.460;25.744;2022-12-18T02:54:36;28.58;;;12.40;;
38693;SDS011;24447;43.460;25.744;2022-12-18T02:57:15;30.10;;;12.75;;
38693;SDS011;24447;43.460;25.744;2022-12-18T03:00:12;27.90;;;11.88;;
38693;SDS011;24447;43.460;25.744;2022-12-18T03:02:53;31.88;;;13.85;;
38693;SDS011;24447;43.460;25.744;2022-12-18T03:05:33;30.00;;;13.30;;
38693;SDS011;24447;43.460;25.744;2022-12-18T03:08:05;42.28;;;16.80;;
38693;SDS011;24447;43.460;25.744;2022-12-18T03:10:34;38.92;;;17.05;;
38693;SDS011;24447;43.460;25.744;2022-12-18T03:13:04;38.95;;;15.55;;
38693;SDS011;24447;43.460;25.744;2022-12-18T03:15:34;45.38;;;16.05;;
38693;SDS011;24447;43.460;25.744;2022-12-18T03:18:10;32.80;;;14.40;;
38693;SDS011;24447;43.460;25.744;2022-12-18T03:20:39;39.58;;;14.88;;
38693;SDS011;24447;43.460;25.744;2022-12-18T03:23:08;33.53;;;12.98;;
38693;SDS011;24447;43.460;25.744;2022-12-18T03:25:38;31.17;;;12.40;;
38693;SDS011;24447;43.460;25.744;2022-12-18T03:28:05;37.72;;;15.77;;
38693;SDS011;24447;43.460;25.744;2022-12-18T03:30:33;30.17;;;13.50;;
38693;SDS011;24447;43.460;25.744;2022-12-18T03:33:06;38.72;;;16.45;;
38693;SDS011;24447;43.460;25.744;2022-12-18T03:35:36;31.30;;;12.57;;
38693;SDS011;24447;43.460;25.744;2022-12-18T03:38:04;29.55;;;13.15;;
38693;SDS011;24447;43.460;25.744;2022-12-18T03:40:35;33.05;;;14.63;;
38693;SDS011;24447;43.460;25.744;2022-12-18T03:43:30;30.08;;;12.02;;
38693;SDS011;24447;43.460;25.744;2022-12-18T03:48:59;36.47;;;15.10;;
38693;SDS011;24447;43.460;25.744;2022-12-18T03:53:58;37.10;;;14.05;;
38693;SDS011;24447;43.460;25.744;2022-12-18T03:58:52;32.30;;;14.65;;
38693;SDS011;24447;43.460;25.744;2022-12-18T04:01:19;38.55;;;15.55;;
38693;SDS011;24447;43.460;25.744;2022-12-18T04:03:49;32.65;;;12.07;;
38693;SDS011;24447;43.460;25.744;2022-12-18T04:06:15;35.00;;;14.95;;
38693;SDS011;24447;43.460;25.744;2022-12-18T04:08:42;41.97;;;16.27;;
38693;SDS011;24447;43.460;25.744;2022-12-18T04:11:08;33.35;;;13.63;;
38693;SDS011;24447;43.460;25.744;2022-12-18T04:13:35;37.60;;;14.57;;
38693;SDS011;24447;43.460;25.744;2022-12-18T04:16:02;29.20;;;12.65;;
38693;SDS011;24447;43.460;25.744;2022-12-18T04:18:28;32.83;;;13.48;;
38693;SDS011;24447;43.460;25.744;2022-12-18T04:20:55;35.03;;;15.85;;
38693;SDS011;24447;43.460;25.744;2022-12-18T04:23:21;35.35;;;14.05;;
38693;SDS011;24447;43.460;25.744;2022-12-18T04:25:47;31.55;;;14.60;;
38693;SDS011;24447;43.460;25.744;2022-12-18T04:28:13;32.17;;;13.10;;
38693;SDS011;24447;43.460;25.744;2022-12-18T04:30:39;38.67;;;15.65;;
38693;SDS011;24447;43.460;25.744;2022-12-18T04:33:11;37.58;;;14.50;;
38693;SDS011;24447;43.460;25.744;2022-12-18T04:35:38;35.88;;;17.98;;
38693;SDS011;24447;43.460;25.744;2022-12-18T04:38:06;28.30;;;13.00;;
38693;SDS011;24447;43.460;25.744;2022-12-18T04:40:33;39.60;;;17.38;;
38693;SDS011;24447;43.460;25.744;2022-12-18T04:42:59;41.22;;;18.50;;
38693;SDS011;24447;43.460;25.744;2022-12-18T04:45:25;39.85;;;17.98;;
38693;SDS011;24447;43.460;25.744;2022-12-18T04:47:51;36.53;;;18.77;;
38693;SDS011;24447;43.460;25.744;2022-12-18T04:50:17;36.05;;;15.73;;
38693;SDS011;24447;43.460;25.744;2022-12-18T04:52:43;43.58;;;15.63;;
38693;SDS011;24447;43.460;25.744;2022-12-18T04:55:09;41.85;;;17.67;;
38693;SDS011;24447;43.460;25.744;2022-12-18T04:57:35;34.85;;;16.98;;
38693;SDS011;24447;43.460;25.744;2022-12-18T05:00:01;40.10;;;16.85;;
38693;SDS011;24447;43.460;25.744;2022-12-18T05:02:27;50.72;;;22.67;;
38693;SDS011;24447;43.460;25.744;2022-12-18T05:04:52;36.30;;;16.77;;
38693;SDS011;24447;43.460;25.744;2022-12-18T05:07:18;42.65;;;17.02;;
38693;SDS011;24447;43.460;25.744;2022-12-18T05:09:44;38.30;;;16.20;;
38693;SDS011;24447;43.460;25.744;2022-12-18T05:12:10;37.45;;;15.27;;
38693;SDS011;24447;43.460;25.744;2022-12-18T05:14:36;35.75;;;16.25;;
38693;SDS011;24447;43.460;25.744;2022-12-18T05:17:02;37.55;;;16.48;;
38693;SDS011;24447;43.460;25.744;2022-12-18T05:19:28;42.72;;;16.10;;
38693;SDS011;24447;43.460;25.744;2022-12-18T05:21:54;42.60;;;18.38;;
38693;SDS011;24447;43.460;25.744;2022-12-18T05:24:20;41.30;;;18.02;;
38693;SDS011;24447;43.460;25.744;2022-12-18T05:26:45;41.47;;;18.38;;
38693;SDS011;24447;43.460;25.744;2022-12-18T05:29:11;45.13;;;18.65;;
38693;SDS011;24447;43.460;25.744;2022-12-18T05:31:38;44.60;;;18.38;;
38693;SDS011;24447;43.460;25.744;2022-12-18T05:34:04;49.95;;;19.80;;
38693;SDS011;24447;43.460;25.744;2022-12-18T05:36:30;49.10;;;20.42;;
38693;SDS011;24447;43.460;25.744;2022-12-18T05:38:56;48.42;;;20.48;;
38693;SDS011;24447;43.460;25.744;2022-12-18T05:41:22;39.38;;;18.65;;
38693;SDS011;24447;43.460;25.744;2022-12-18T05:43:48;38.42;;;18.17;;
38693;SDS011;24447;43.460;25.744;2022-12-18T05:46:15;42.38;;;16.77;;
38693;SDS011;24447;43.460;25.744;2022-12-18T05:48:43;42.60;;;16.58;;
38693;SDS011;24447;43.460;25.744;2022-12-18T05:51:11;35.85;;;15.10;;
38693;SDS011;24447;43.460;25.744;2022-12-18T05:53:39;41.63;;;16.17;;
38693;SDS011;24447;43.460;25.744;2022-12-18T05:56:06;37.92;;;15.02;;
38693;SDS011;24447;43.460;25.744;2022-12-18T05:58:37;40.45;;;15.55;;
38693;SDS011;24447;43.460;25.744;2022-12-18T06:03:42;45.00;;;17.27;;
38693;SDS011;24447;43.460;25.744;2022-12-18T06:06:42;43.00;;;16.73;;
38693;SDS011;24447;43.460;25.744;2022-12-18T06:09:01;53.92;;;20.05;;
38693;SDS011;24447;43.460;25.744;2022-12-18T06:11:33;44.17;;;16.67;;
38693;SDS011;24447;43.460;25.744;2022-12-18T06:14:00;46.95;;;19.80;;
38693;SDS011;24447;43.460;25.744;2022-12-18T06:16:27;43.38;;;18.90;;
38693;SDS011;24447;43.460;25.744;2022-12-18T06:18:55;41.25;;;18.02;;
38693;SDS011;24447;43.460;25.744;2022-12-18T06:21:22;50.45;;;19.40;;
38693;SDS011;24447;43.460;25.744;2022-12-18T06:23:48;43.03;;;16.77;;
38693;SDS011;24447;43.460;25.744;2022-12-18T06:26:14;43.20;;;18.00;;
38693;SDS011;24447;43.460;25.744;2022-12-18T06:28:40;43.78;;;18.63;;
38693;SDS011;24447;43.460;25.744;2022-12-18T06:31:06;53.42;;;20.50;;
38693;SDS011;24447;43.460;25.744;2022-12-18T06:33:33;44.13;;;17.65;;
38693;SDS011;24447;43.460;25.744;2022-12-18T06:35:59;48.95;;;20.90;;
38693;SDS011;24447;43.460;25.744;2022-12-18T06:38:29;56.60;;;25.48;;
38693;SDS011;24447;43.460;25.744;2022-12-18T06:40:56;54.60;;;23.52;;
38693;SDS011;24447;43.460;25.744;2022-12-18T06:43:22;53.08;;;19.42;;
38693;SDS011;24447;43.460;25.744;2022-12-18T06:45:48;76.38;;;30.13;;
38693;SDS011;24447;43.460;25.744;2022-12-18T06:48:18;36.25;;;13.70;;
38693;SDS011;24447;43.460;25.744;2022-12-18T06:50:47;47.60;;;17.50;;
38693;SDS011;24447;43.460;25.744;2022-12-18T06:53:13;44.60;;;15.45;;
38693;SDS011;24447;43.460;25.744;2022-12-18T06:55:39;40.10;;;16.08;;
38693;SDS011;24447;43.460;25.744;2022-12-18T06:58:05;40.83;;;17.08;;
38693;SDS011;24447;43.460;25.744;2022-12-18T07:00:31;52.58;;;20.75;;
38693;SDS011;24447;43.460;25.744;2022-12-18T07:02:57;41.65;;;18.08;;
38693;SDS011;24447;43.460;25.744;2022-12-18T07:05:23;47.03;;;17.33;;
38693;SDS011;24447;43.460;25.744;2022-12-18T07:07:49;45.88;;;19.38;;
38693;SDS011;24447;43.460;25.744;2022-12-18T07:10:15;40.67;;;17.02;;
38693;SDS011;24447;43.460;25.744;2022-12-18T07:12:41;42.17;;;17.77;;
38693;SDS011;24447;43.460;25.744;2022-12-18T07:15:07;38.38;;;16.50;;
38693;SDS011;24447;43.460;25.744;2022-12-18T07:17:33;48.97;;;18.70;;
38693;SDS011;24447;43.460;25.744;2022-12-18T07:19:59;49.50;;;19.25;;
38693;SDS011;24447;43.460;25.744;2022-12-18T07:22:25;41.25;;;16.10;;
38693;SDS011;24447;43.460;25.744;2022-12-18T07:24:51;38.58;;;14.80;;
38693;SDS011;24447;43.460;25.744;2022-12-18T07:27:17;37.40;;;16.17;;
38693;SDS011;24447;43.460;25.744;2022-12-18T07:29:43;37.20;;;16.17;;
38693;SDS011;24447;43.460;25.744;2022-12-18T07:32:09;42.83;;;16.77;;
38693;SDS011;24447;43.460;25.744;2022-12-18T07:34:35;38.42;;;17.40;;
38693;SDS011;24447;43.460;25.744;2022-12-18T07:37:01;42.50;;;14.55;;
38693;SDS011;24447;43.460;25.744;2022-12-18T07:39:27;45.30;;;17.42;;
38693;SDS011;24447;43.460;25.744;2022-12-18T07:41:52;55.80;;;22.15;;
38693;SDS011;24447;43.460;25.744;2022-12-18T07:44:37;47.42;;;20.75;;
38693;SDS011;24447;43.460;25.744;2022-12-18T07:47:03;46.45;;;19.58;;
38693;SDS011;24447;43.460;25.744;2022-12-18T07:49:30;50.10;;;18.23;;
38693;SDS011;24447;43.460;25.744;2022-12-18T07:51:56;44.00;;;17.63;;
38693;SDS011;24447;43.460;25.744;2022-12-18T07:54:22;57.53;;;25.23;;
38693;SDS011;24447;43.460;25.744;2022-12-18T07:56:49;44.53;;;17.45;;
38693;SDS011;24447;43.460;25.744;2022-12-18T07:59:15;39.85;;;15.88;;
38693;SDS011;24447;43.460;25.744;2022-12-18T08:01:41;33.85;;;14.57;;
38693;SDS011;24447;43.460;25.744;2022-12-18T08:04:07;43.55;;;17.92;;
38693;SDS011;24447;43.460;25.744;2022-12-18T08:06:33;39.78;;;17.13;;
38693;SDS011;24447;43.460;25.744;2022-12-18T08:08:59;36.22;;;16.23;;
38693;SDS011;24447;43.460;25.744;2022-12-18T08:11:28;48.38;;;18.88;;
38693;SDS011;24447;43.460;25.744;2022-12-18T08:13:54;46.25;;;18.55;;
38693;SDS011;24447;43.460;25.744;2022-12-18T08:16:21;34.13;;;14.68;;
38693;SDS011;24447;43.460;25.744;2022-12-18T08:18:47;43.25;;;18.73;;
38693;SDS011;24447;43.460;25.744;2022-12-18T08:21:18;37.95;;;15.20;;
38693;SDS011;24447;43.460;25.744;2022-12-18T08:23:48;41.35;;;15.07;;
38693;SDS011;24447;43.460;25.744;2022-12-18T08:26:15;45.00;;;20.60;;
38693;SDS011;24447;43.460;25.744;2022-12-18T08:28:41;40.95;;;17.58;;
38693;SDS011;24447;43.460;25.744;2022-12-18T08:31:07;44.60;;;19.83;;
38693;SDS011;24447;43.460;25.744;2022-12-18T08:33:34;55.40;;;22.08;;
38693;SDS011;24447;43.460;25.744;2022-12-18T08:36:01;50.83;;;19.80;;
38693;SDS011;24447;43.460;25.744;2022-12-18T08:38:27;52.13;;;18.77;;
38693;SDS011;24447;43.460;25.744;2022-12-18T08:41:00;39.45;;;17.58;;
38693;SDS011;24447;43.460;25.744;2022-12-18T08:43:33;34.92;;;15.02;;
38693;SDS011;24447;43.460;25.744;2022-12-18T08:46:19;38.50;;;15.82;;
38693;SDS011;24447;43.460;25.744;2022-12-18T08:48:45;44.58;;;15.88;;
38693;SDS011;24447;43.460;25.744;2022-12-18T08:51:12;42.55;;;18.02;;
38693;SDS011;24447;43.460;25.744;2022-12-18T08:53:38;38.85;;;15.70;;
38693;SDS011;24447;43.460;25.744;2022-12-18T08:56:04;50.50;;;19.25;;
38693;SDS011;24447;43.460;25.744;2022-12-18T08:58:30;58.92;;;22.92;;
38693;SDS011;24447;43.460;25.744;2022-12-18T09:01:00;55.58;;;21.45;;
38693;SDS011;24447;43.460;25.744;2022-12-18T09:03:27;46.03;;;17.03;;
38693;SDS011;24447;43.460;25.744;2022-12-18T09:05:53;47.58;;;16.60;;
38693;SDS011;24447;43.460;25.744;2022-12-18T09:08:18;41.53;;;16.60;;
38693;SDS011;24447;43.460;25.744;2022-12-18T09:10:45;49.90;;;22.08;;
38693;SDS011;24447;43.460;25.744;2022-12-18T09:13:11;46.65;;;19.75;;
38693;SDS011;24447;43.460;25.744;2022-12-18T09:15:41;38.58;;;16.55;;
38693;SDS011;24447;43.460;25.744;2022-12-18T09:18:08;51.30;;;19.90;;
38693;SDS011;24447;43.460;25.744;2022-12-18T09:20:35;52.00;;;20.13;;
38693;SDS011;24447;43.460;25.744;2022-12-18T09:23:01;57.10;;;23.35;;
38693;SDS011;24447;43.460;25.744;2022-12-18T09:25:28;39.53;;;17.17;;
38693;SDS011;24447;43.460;25.744;2022-12-18T09:28:14;42.78;;;16.98;;
38693;SDS011;24447;43.460;25.744;2022-12-18T09:30:42;42.85;;;20.38;;
38693;SDS011;24447;43.460;25.744;2022-12-18T09:33:13;37.03;;;16.13;;
38693;SDS011;24447;43.460;25.744;2022-12-18T09:35:40;31.60;;;12.73;;
38693;SDS011;24447;43.460;25.744;2022-12-18T09:38:08;34.70;;;16.35;;
38693;SDS011;24447;43.460;25.744;2022-12-18T09:40:36;34.78;;;14.10;;
38693;SDS011;24447;43.460;25.744;2022-12-18T09:43:06;31.95;;;13.50;;
38693;SDS011;24447;43.460;25.744;2022-12-18T09:45:44;36.00;;;13.30;;
38693;SDS011;24447;43.460;25.744;2022-12-18T09:48:23;34.65;;;15.70;;
38693;SDS011;24447;43.460;25.744;2022-12-18T09:50:52;40.70;;;18.88;;
38693;SDS011;24447;43.460;25.744;2022-12-18T09:53:23;39.88;;;15.77;;
38693;SDS011;24447;43.460;25.744;2022-12-18T09:55:52;34.50;;;14.13;;
38693;SDS011;24447;43.460;25.744;2022-12-18T09:58:30;35.88;;;15.60;;
38693;SDS011;24447;43.460;25.744;2022-12-18T10:00:59;37.53;;;14.35;;
38693;SDS011;24447;43.460;25.744;2022-12-18T10:03:25;35.08;;;14.75;;
38693;SDS011;24447;43.460;25.744;2022-12-18T10:14:19;46.00;;;16.83;;
38693;SDS011;24447;43.460;25.744;2022-12-18T10:19:39;32.47;;;13.98;;
38693;SDS011;24447;43.460;25.744;2022-12-18T10:27:25;39.22;;;16.35;;
38693;SDS011;24447;43.460;25.744;2022-12-18T10:29:52;41.75;;;16.65;;
38693;SDS011;24447;43.460;25.744;2022-12-18T10:32:23;42.40;;;17.13;;
38693;SDS011;24447;43.460;25.744;2022-12-18T10:34:52;42.65;;;17.23;;
38693;SDS011;24447;43.460;25.744;2022-12-18T10:37:20;37.65;;;16.77;;
38693;SDS011;24447;43.460;25.744;2022-12-18T10:40:07;38.67;;;15.98;;
38693;SDS011;24447;43.460;25.744;2022-12-18T10:42:38;42.85;;;17.15;;
38693;SDS011;24447;43.460;25.744;2022-12-18T10:45:13;59.38;;;21.25;;
38693;SDS011;24447;43.460;25.744;2022-12-18T10:47:50;46.88;;;20.40;;
38693;SDS011;24447;43.460;25.744;2022-12-18T10:50:35;44.40;;;17.58;;
38693;SDS011;24447;43.460;25.744;2022-12-18T10:53:03;59.22;;;23.38;;
38693;SDS011;24447;43.460;25.744;2022-12-18T10:55:38;49.75;;;20.38;;
38693;SDS011;24447;43.460;25.744;2022-12-18T11:03:31;34.95;;;16.65;;
38693;SDS011;24447;43.460;25.744;2022-12-18T11:06:15;37.80;;;15.43;;
38693;SDS011;24447;43.460;25.744;2022-12-18T11:08:43;40.60;;;17.60;;
38693;SDS011;24447;43.460;25.744;2022-12-18T11:11:22;39.47;;;15.73;;
38693;SDS011;24447;43.460;25.744;2022-12-18T11:13:59;48.00;;;16.85;;
38693;SDS011;24447;43.460;25.744;2022-12-18T11:16:26;39.58;;;17.75;;
38693;SDS011;24447;43.460;25.744;2022-12-18T11:18:53;41.92;;;15.52;;
38693;SDS011;24447;43.460;25.744;2022-12-18T11:21:20;35.65;;;14.93;;
38693;SDS011;24447;43.460;25.744;2022-12-18T11:23:52;38.45;;;16.10;;
38693;SDS011;24447;43.460;25.744;2022-12-18T11:26:19;40.30;;;15.43;;
38693;SDS011;24447;43.460;25.744;2022-12-18T11:28:47;40.47;;;14.43;;
38693;SDS011;24447;43.460;25.744;2022-12-18T11:31:23;43.30;;;16.63;;
38693;SDS011;24447;43.460;25.744;2022-12-18T11:33:59;40.60;;;14.77;;
38693;SDS011;24447;43.460;25.744;2022-12-18T11:36:25;34.25;;;15.80;;
38693;SDS011;24447;43.460;25.744;2022-12-18T11:38:55;41.17;;;18.30;;
38693;SDS011;24447;43.460;25.744;2022-12-18T11:41:23;47.65;;;18.65;;
38693;SDS011;24447;43.460;25.744;2022-12-18T11:44:35;42.45;;;17.67;;
38693;SDS011;24447;43.460;25.744;2022-12-18T11:49:47;44.55;;;15.13;;
38693;SDS011;24447;43.460;25.744;2022-12-18T11:52:19;39.65;;;15.02;;
38693;SDS011;24447;43.460;25.744;2022-12-18T11:54:50;83.75;;;32.63;;
38693;SDS011;24447;43.460;25.744;2022-12-18T11:57:27;66.00;;;26.10;;
38693;SDS011;24447;43.460;25.744;2022-12-18T12:00:20;46.50;;;18.58;;
38693;SDS011;24447;43.460;25.744;2022-12-18T12:11:58;35.10;;;14.43;;
38693;SDS011;24447;43.460;25.744;2022-12-18T12:22:38;33.28;;;13.23;;
38693;SDS011;24447;43.460;25.744;2022-12-18T12:33:14;41.67;;;15.70;;
38693;SDS011;24447;43.460;25.744;2022-12-18T12:35:49;44.95;;;20.00;;
38693;SDS011;24447;43.460;25.744;2022-12-18T12:38:26;49.38;;;21.48;;
38693;SDS011;24447;43.460;25.744;2022-12-18T12:41:05;67.47;;;24.33;;
38693;SDS011;24447;43.460;25.744;2022-12-18T12:43:53;47.03;;;20.52;;
38693;SDS011;24447;43.460;25.744;2022-12-18T12:46:22;39.35;;;14.70;;
38693;SDS011;24447;43.460;25.744;2022-12-18T12:48:50;39.03;;;14.68;;
38693;SDS011;24447;43.460;25.744;2022-12-18T12:51:35;37.30;;;13.25;;
38693;SDS011;24447;43.460;25.744;2022-12-18T12:54:04;34.42;;;14.63;;
38693;SDS011;24447;43.460;25.744;2022-12-18T13:08:12;43.63;;;17.55;;
38693;SDS011;24447;43.460;25.744;2022-12-18T13:10:51;38.78;;;16.25;;
38693;SDS011;24447;43.460;25.744;2022-12-18T13:13:48;32.20;;;12.70;;
38693;SDS011;24447;43.460;25.744;2022-12-18T13:16:14;34.75;;;14.45;;
38693;SDS011;24447;43.460;25.744;2022-12-18T13:18:51;42.72;;;15.55;;
38693;SDS011;24447;43.460;25.744;2022-12-18T13:21:27;39.40;;;17.40;;
38693;SDS011;24447;43.460;25.744;2022-12-18T13:23:56;44.38;;;18.80;;
38693;SDS011;24447;43.460;25.744;2022-12-18T13:26:54;45.67;;;17.73;;
38693;SDS011;24447;43.460;25.744;2022-12-18T13:32:22;44.78;;;17.17;;
38693;SDS011;24447;43.460;25.744;2022-12-18T13:35:37;56.85;;;22.85;;
38693;SDS011;24447;43.460;25.744;2022-12-18T13:37:40;64.03;;;29.17;;
38693;SDS011;24447;43.460;25.744;2022-12-18T13:40:42;55.70;;;23.75;;
38693;SDS011;24447;43.460;25.744;2022-12-18T13:48:28;36.97;;;15.90;;
38693;SDS011;24447;43.460;25.744;2022-12-18T13:51:01;41.08;;;16.70;;
38693;SDS011;24447;43.460;25.744;2022-12-18T13:53:39;35.13;;;15.57;;
38693;SDS011;24447;43.460;25.744;2022-12-18T13:56:09;34.47;;;16.10;;
38693;SDS011;24447;43.460;25.744;2022-12-18T13:58:35;43.50;;;20.25;;
38693;SDS011;24447;43.460;25.744;2022-12-18T14:01:01;40.70;;;15.85;;
38693;SDS011;24447;43.460;25.744;2022-12-18T14:03:29;59.15;;;28.08;;
38693;SDS011;24447;43.460;25.744;2022-12-18T14:06:00;51.55;;;20.90;;
38693;SDS011;24447;43.460;25.744;2022-12-18T14:08:30;44.95;;;17.83;;
38693;SDS011;24447;43.460;25.744;2022-12-18T14:10:59;54.53;;;21.13;;
38693;SDS011;24447;43.460;25.744;2022-12-18T14:13:30;50.20;;;20.13;;
38693;SDS011;24447;43.460;25.744;2022-12-18T14:15:57;49.47;;;19.75;;
38693;SDS011;24447;43.460;25.744;2022-12-18T14:21:00;51.20;;;21.55;;
38693;SDS011;24447;43.460;25.744;2022-12-18T14:23:28;39.63;;;15.27;;
38693;SDS011;24447;43.460;25.744;2022-12-18T14:25:55;41.38;;;19.08;;
38693;SDS011;24447;43.460;25.744;2022-12-18T14:28:21;76.38;;;30.25;;
38693;SDS011;24447;43.460;25.744;2022-12-18T14:30:47;174.55;;;74.93;;
38693;SDS011;24447;43.460;25.744;2022-12-18T14:33:18;92.93;;;39.05;;
38693;SDS011;24447;43.460;25.744;2022-12-18T14:38:29;56.47;;;24.33;;
38693;SDS011;24447;43.460;25.744;2022-12-18T14:41:06;43.65;;;21.35;;
38693;SDS011;24447;43.460;25.744;2022-12-18T14:43:36;54.53;;;23.65;;
38693;SDS011;24447;43.460;25.744;2022-12-18T14:48:54;100.03;;;47.40;;
38693;SDS011;24447;43.460;25.744;2022-12-18T14:51:21;81.22;;;42.20;;
38693;SDS011;24447;43.460;25.744;2022-12-18T14:53:55;76.93;;;36.50;;
38693;SDS011;24447;43.460;25.744;2022-12-18T14:56:29;72.15;;;29.90;;
38693;SDS011;24447;43.460;25.744;2022-12-18T14:59:15;67.72;;;27.42;;
38693;SDS011;24447;43.460;25.744;2022-12-18T15:01:46;78.05;;;34.95;;
38693;SDS011;24447;43.460;25.744;2022-12-18T15:04:34;82.93;;;34.40;;
38693;SDS011;24447;43.460;25.744;2022-12-18T15:07:39;65.03;;;27.42;;
38693;SDS011;24447;43.460;25.744;2022-12-18T15:18:04;48.80;;;19.02;;
38693;SDS011;24447;43.460;25.744;2022-12-18T15:20:44;48.20;;;19.73;;
38693;SDS011;24447;43.460;25.744;2022-12-18T15:23:17;41.03;;;16.92;;
38693;SDS011;24447;43.460;25.744;2022-12-18T15:25:57;44.75;;;18.60;;
38693;SDS011;24447;43.460;25.744;2022-12-18T15:31:00;43.78;;;16.85;;
38693;SDS011;24447;43.460;25.744;2022-12-18T15:33:27;48.67;;;19.07;;
38693;SDS011;24447;43.460;25.744;2022-12-18T15:36:00;43.85;;;19.90;;
38693;SDS011;24447;43.460;25.744;2022-12-18T15:38:31;61.13;;;19.88;;
38693;SDS011;24447;43.460;25.744;2022-12-18T15:40:57;59.50;;;25.65;;
38693;SDS011;24447;43.460;25.744;2022-12-18T15:43:23;54.38;;;21.05;;
38693;SDS011;24447;43.460;25.744;2022-12-18T15:46:18;129.38;;;52.92;;
38693;SDS011;24447;43.460;25.744;2022-12-18T15:48:46;147.20;;;60.33;;
38693;SDS011;24447;43.460;25.744;2022-12-18T15:51:14;88.63;;;34.72;;
38693;SDS011;24447;43.460;25.744;2022-12-18T15:53:42;65.07;;;22.35;;
38693;SDS011;24447;43.460;25.744;2022-12-18T15:56:11;55.63;;;20.55;;
38693;SDS011;24447;43.460;25.744;2022-12-18T15:58:56;69.57;;;21.85;;
38693;SDS011;24447;43.460;25.744;2022-12-18T16:01:23;59.13;;;19.95;;
38693;SDS011;24447;43.460;25.744;2022-12-18T16:03:50;53.03;;;18.80;;
38693;SDS011;24447;43.460;25.744;2022-12-18T16:06:16;37.97;;;15.25;;
38693;SDS011;24447;43.460;25.744;2022-12-18T16:08:42;42.55;;;13.20;;
38693;SDS011;24447;43.460;25.744;2022-12-18T16:11:15;44.75;;;14.25;;
38693;SDS011;24447;43.460;25.744;2022-12-18T16:13:45;32.45;;;14.13;;
38693;SDS011;24447;43.460;25.744;2022-12-18T16:16:11;48.72;;;18.90;;
38693;SDS011;24447;43.460;25.744;2022-12-18T16:18:36;40.55;;;16.05;;
38693;SDS011;24447;43.460;25.744;2022-12-18T16:21:02;35.42;;;14.20;;
38693;SDS011;24447;43.460;25.744;2022-12-18T16:23:28;33.53;;;12.73;;
38693;SDS011;24447;43.460;25.744;2022-12-18T16:25:54;26.75;;;10.77;;
38693;SDS011;24447;43.460;25.744;2022-12-18T16:28:20;31.60;;;10.82;;
38693;SDS011;24447;43.460;25.744;2022-12-18T16:30:46;34.38;;;10.98;;